VIP Ground Handling & Aviation Services

 

 
Airport

SOFIA (SOF)

Ground Handling Services – SOF/LBSF

VIP Ground Handling

State Ground Handling

Military Ground Handling

Slot & PPR Coordination

Fuel Arrangements

Crew Accommodation Arrangements

Crew Transportation

Customs & Immigration Assistance

Executive Terminal Services

Crew Lounge

Flight Planning, Weather Briefing and NOTAMs

Catering Arrangements

Security Services

Aircraft Maintenance

Airport Customs & Immigration

Concierge Services

VIP Meet & Greet

Helicopter Transfers

Chauffeur Services

Aircraft Charter

Yacht Charter

Hire & Rental

Entertainment & Hospitality

Health & Beauty

Delivery Services

Conference & Meeting rooms

Sofia Airport, Sofia, 1540

+359895151500 (24/7)

+359 2 9459020

bulgaria@alphajetservices.com

Sofia Airport
Airport Type
•Civil
Operating Hours
•Check NOTAMS / Contact us
Fuel Available
•JET A1
Fire Category
•8
Approaches
•ILS / DME NDB
Available data for LBSF from the past 2 hours
SOFIA
Metar
LBSF 261000Z 11016G26KT 080V150 CAVOK 31/12 Q1021 NOSIG

10:00 UTC

Wind: 110° 16kt

Visibility:

Sky:

Temp: 31 deg C / 87.8 deg F

Dewpoint: 12 deg C / 53.6 deg F

Pressure: 1021 hPa

TAF
TAF LBSF 260500Z 2606/2706 10010KT CAVOK BECMG 2619/2621 VRB04KT